Time;durP1;ratioP1;P1;durP2;ratioP2;P2;SDS_P1;SDS_P2;PMS_P1;PMS_P2;Temp;Humidity;BMP_temperature;BMP_pressure;BME280_temperature;BME280_humidity;BME280_pressure;Samples;Min_cycle;Max_cycle;Signal;HPM_P1;HPM_P2
2023/03/26 00:01:06;;;;;;;3.42;1.98;;;8.20;99.90;;;;;;6221226;23;20371;-83
2023/03/26 00:03:34;;;;;;;4.40;2.22;;;8.10;99.90;;;;;;6225798;23;20402;-83
2023/03/26 00:06:08;;;;;;;3.63;1.90;;;8.20;99.90;;;;;;6225062;23;20379;-82
2023/03/26 00:08:35;;;;;;;4.40;2.22;;;8.20;99.90;;;;;;6250417;23;20397;-83
2023/03/26 00:11:05;;;;;;;6.35;2.20;;;8.20;99.90;;;;;;6222679;23;20353;-85
2023/03/26 00:13:34;;;;;;;2.92;1.90;;;8.30;99.90;;;;;;6250342;23;20356;-84
2023/03/26 00:16:00;;;;;;;2.40;1.85;;;8.20;99.90;;;;;;6220956;23;20359;-84
2023/03/26 00:18:30;;;;;;;2.78;1.90;;;8.30;99.90;;;;;;6221620;23;20364;-85
2023/03/26 00:21:02;;;;;;;5.30;2.25;;;8.20;99.90;;;;;;6222185;23;20380;-84
2023/03/26 00:23:28;;;;;;;4.30;2.10;;;8.30;99.90;;;;;;6222491;23;20452;-84
2023/03/26 00:25:55;;;;;;;4.57;1.90;;;8.20;99.90;;;;;;6222503;23;20408;-84
2023/03/26 00:28:22;;;;;;;5.00;2.08;;;8.20;99.90;;;;;;6249283;23;20352;-83
2023/03/26 00:30:57;;;;;;;4.57;2.40;;;8.40;99.90;;;;;;6223407;23;20731;-83
2023/03/26 00:33:26;;;;;;;4.43;1.90;;;8.30;99.90;;;;;;6222110;23;20822;-83
2023/03/26 00:35:57;;;;;;;4.80;1.83;;;8.30;99.90;;;;;;6249306;23;20348;-84
2023/03/26 00:38:24;;;;;;;4.72;1.90;;;8.40;99.90;;;;;;6240737;22;20344;-84
2023/03/26 00:40:53;;;;;;;3.22;1.88;;;8.30;99.90;;;;;;6242659;22;20364;-84
2023/03/26 00:43:22;;;;;;;4.95;2.10;;;8.20;99.90;;;;;;6230606;23;20367;-83
2023/03/26 00:45:52;;;;;;;4.30;1.90;;;8.20;99.90;;;;;;6222346;23;20352;-85
2023/03/26 00:48:23;;;;;;;3.80;1.70;;;8.20;99.90;;;;;;6248124;23;20367;-86
2023/03/26 00:50:49;;;;;;;3.08;1.88;;;8.20;99.90;;;;;;6247731;23;20356;-83
2023/03/26 00:53:16;;;;;;;3.55;1.80;;;8.10;99.90;;;;;;6221380;23;20360;-83
2023/03/26 00:55:44;;;;;;;4.50;1.85;;;8.10;99.90;;;;;;6192429;23;20396;-84
2023/03/26 00:58:12;;;;;;;4.40;2.03;;;8.20;99.90;;;;;;6190382;23;20437;-84
2023/03/26 01:00:56;;;;;;;5.00;2.13;;;8.10;99.90;;;;;;6218674;23;20673;-83
2023/03/26 01:03:23;;;;;;;4.47;2.33;;;8.10;99.90;;;;;;6217905;23;20383;-83
2023/03/26 01:06:12;;;;;;;4.47;2.60;;;8.10;99.90;;;;;;6189427;23;20353;-84
2023/03/26 01:08:47;;;;;;;5.03;2.88;;;7.90;99.90;;;;;;6215441;23;20476;-84
2023/03/26 01:11:20;;;;;;;4.50;2.65;;;8.00;99.90;;;;;;6214011;23;20338;-85
2023/03/26 01:13:52;;;;;;;4.38;3.22;;;7.80;99.90;;;;;;6214936;23;20372;-83
2023/03/26 01:16:25;;;;;;;4.90;2.90;;;7.80;99.90;;;;;;6188414;23;20385;-85
2023/03/26 01:19:03;;;;;;;4.10;3.00;;;7.80;99.90;;;;;;6192295;23;20345;-84
2023/03/26 01:21:31;;;;;;;6.15;3.10;;;7.80;99.90;;;;;;6192280;23;20477;-86
2023/03/26 01:24:00;;;;;;;4.63;2.75;;;7.80;99.90;;;;;;6220650;23;20364;-84
2023/03/26 01:26:31;;;;;;;4.25;2.60;;;7.80;99.90;;;;;;6193659;23;20353;-85
2023/03/26 01:29:02;;;;;;;4.00;2.27;;;7.80;99.90;;;;;;6193374;23;20362;-85
2023/03/26 01:31:41;;;;;;;4.78;2.40;;;7.90;99.90;;;;;;6220630;23;20330;-85
2023/03/26 01:34:26;;;;;;;4.28;2.30;;;7.90;99.90;;;;;;6237521;23;20366;-83
2023/03/26 01:37:07;;;;;;;3.72;1.95;;;7.80;99.90;;;;;;6206199;23;20425;-83
2023/03/26 01:39:52;;;;;;;4.70;2.20;;;7.90;99.90;;;;;;6219445;23;20342;-85
2023/03/26 01:42:33;;;;;;;3.50;2.10;;;7.90;99.90;;;;;;6192994;23;20378;-82
2023/03/26 01:45:15;;;;;;;4.00;2.08;;;8.00;99.90;;;;;;6218428;23;20352;-84
2023/03/26 01:47:47;;;;;;;5.07;2.53;;;7.90;99.90;;;;;;6191728;23;20346;-84
2023/03/26 01:50:13;;;;;;;3.40;1.85;;;7.80;99.90;;;;;;6190803;23;20397;-84
2023/03/26 01:52:44;;;;;;;3.75;2.38;;;7.90;99.90;;;;;;6216029;23;20350;-83
2023/03/26 01:55:11;;;;;;;3.58;2.20;;;7.90;99.90;;;;;;6216210;23;20343;-83
2023/03/26 01:58:07;;;;;;;3.63;1.97;;;8.00;99.90;;;;;;6214798;23;20353;-84
2023/03/26 02:00:41;;;;;;;3.73;2.40;;;8.00;99.90;;;;;;6190544;23;20357;-85
2023/03/26 02:03:19;;;;;;;3.90;2.50;;;7.80;99.90;;;;;;6216917;23;20326;-84
2023/03/26 02:06:26;;;;;;;4.88;3.10;;;7.70;99.90;;;;;;6197994;23;20353;-83
2023/03/26 02:09:13;;;;;;;4.78;3.28;;;7.60;99.90;;;;;;6221473;23;20376;-83
2023/03/26 02:11:40;;;;;;;5.10;3.15;;;7.70;99.90;;;;;;6197112;23;20350;-84
2023/03/26 02:14:08;;;;;;;5.65;3.70;;;7.60;99.90;;;;;;6192300;23;20895;-84
2023/03/26 02:16:35;;;;;;;5.25;3.38;;;7.50;99.90;;;;;;6217631;23;20373;-85
2023/03/26 02:19:01;;;;;;;6.00;3.42;;;7.40;99.90;;;;;;6192037;23;20358;-84
2023/03/26 02:21:32;;;;;;;6.45;3.70;;;7.40;99.90;;;;;;6190535;23;20513;-82
2023/03/26 02:24:01;;;;;;;6.00;4.20;;;7.40;99.90;;;;;;6192536;23;20353;-85
2023/03/26 02:26:29;;;;;;;6.87;4.07;;;7.30;99.90;;;;;;6191465;23;20364;-84
2023/03/26 02:29:00;;;;;;;7.20;4.10;;;7.30;99.90;;;;;;6192247;23;20380;-85
2023/03/26 02:31:29;;;;;;;5.20;4.17;;;7.20;99.90;;;;;;6191278;23;20346;-82
2023/03/26 02:33:55;;;;;;;4.40;4.00;;;7.20;99.90;;;;;;6218992;23;20342;-84
2023/03/26 02:36:26;;;;;;;6.90;4.40;;;7.30;99.90;;;;;;6187202;23;20429;-84
2023/03/26 02:38:53;;;;;;;7.10;4.13;;;7.30;99.90;;;;;;6187436;23;20440;-83
2023/03/26 02:41:19;;;;;;;6.13;4.35;;;7.40;99.90;;;;;;6214654;23;20430;-84
2023/03/26 02:43:45;;;;;;;5.45;3.67;;;7.50;99.90;;;;;;6193374;23;20353;-83
2023/03/26 02:46:11;;;;;;;5.28;3.90;;;7.50;99.90;;;;;;6185635;23;20365;-84
2023/03/26 02:48:36;;;;;;;5.28;3.90;;;7.40;99.90;;;;;;6188473;23;20346;-83
2023/03/26 02:51:05;;;;;;;5.38;4.30;;;7.40;99.90;;;;;;6214147;23;20405;-85
2023/03/26 02:53:31;;;;;;;7.13;4.35;;;7.40;99.90;;;;;;6212677;23;20354;-85
2023/03/26 02:55:58;;;;;;;5.40;3.50;;;7.50;99.90;;;;;;6182643;23;20425;-84
2023/03/26 02:58:25;;;;;;;6.57;3.75;;;7.40;99.90;;;;;;6182956;23;20901;-84
2023/03/26 03:00:55;;;;;;;7.63;3.80;;;7.40;99.90;;;;;;6181997;23;20376;-85
2023/03/26 03:03:25;;;;;;;4.97;3.17;;;7.50;99.90;;;;;;6186380;23;20340;-85
2023/03/26 03:05:57;;;;;;;6.32;3.22;;;7.50;99.90;;;;;;6184052;23;20825;-85
2023/03/26 03:08:26;;;;;;;5.18;3.58;;;7.60;99.90;;;;;;6181657;23;20423;-83
2023/03/26 03:11:08;;;;;;;6.03;3.60;;;7.70;99.90;;;;;;6184009;23;20352;-83
2023/03/26 03:13:42;;;;;;;4.22;3.20;;;7.70;99.90;;;;;;6182304;23;20462;-82
2023/03/26 03:16:09;;;;;;;5.47;3.60;;;7.70;99.90;;;;;;6185637;23;20472;-84
2023/03/26 03:18:36;;;;;;;6.60;3.80;;;7.70;99.90;;;;;;6184645;23;20359;-82
2023/03/26 03:21:03;;;;;;;5.88;3.58;;;7.70;99.90;;;;;;6186106;23;20478;-83
2023/03/26 03:23:29;;;;;;;8.70;3.70;;;7.80;99.90;;;;;;6184724;23;20612;-83
2023/03/26 03:25:58;;;;;;;5.43;3.50;;;7.70;99.90;;;;;;6182869;23;20857;-83
2023/03/26 03:28:24;;;;;;;6.82;4.00;;;7.70;99.90;;;;;;6186598;23;20466;-83
2023/03/26 03:30:56;;;;;;;5.95;3.60;;;7.80;99.90;;;;;;6187541;23;20468;-83
2023/03/26 03:33:22;;;;;;;8.25;3.90;;;7.70;99.90;;;;;;6188012;23;20355;-85
2023/03/26 03:35:49;;;;;;;5.05;3.10;;;7.60;99.90;;;;;;6163322;23;20364;-85
2023/03/26 03:38:16;;;;;;;6.43;3.45;;;7.70;99.90;;;;;;6186800;23;20374;-85
2023/03/26 03:40:44;;;;;;;8.20;3.00;;;7.60;99.90;;;;;;6184884;23;20670;-84
2023/03/26 03:43:10;;;;;;;6.13;3.20;;;7.60;99.90;;;;;;6183441;23;20465;-83
2023/03/26 03:45:36;;;;;;;5.33;2.97;;;7.70;99.90;;;;;;6184485;23;20434;-85
2023/03/26 03:48:02;;;;;;;6.13;3.10;;;7.70;99.90;;;;;;6191386;23;20370;-84
2023/03/26 03:50:30;;;;;;;6.82;3.13;;;7.70;99.90;;;;;;6192639;23;20340;-85
2023/03/26 03:52:58;;;;;;;5.28;3.00;;;7.70;99.90;;;;;;6184568;23;20383;-84
2023/03/26 03:55:26;;;;;;;5.47;2.72;;;7.70;99.90;;;;;;6188104;23;20351;-85
2023/03/26 03:57:55;;;;;;;6.28;3.30;;;7.70;99.90;;;;;;6219669;23;20348;-85
2023/03/26 04:00:21;;;;;;;5.20;3.05;;;7.70;99.90;;;;;;6193868;23;20346;-83
2023/03/26 04:02:53;;;;;;;4.07;3.13;;;7.60;99.90;;;;;;6223252;23;20342;-85
2023/03/26 04:05:18;;;;;;;4.47;3.00;;;7.70;99.90;;;;;;6194788;23;20911;-87
2023/03/26 04:07:44;;;;;;;8.85;3.67;;;7.70;99.90;;;;;;6194931;23;20365;-83
2023/03/26 04:10:14;;;;;;;7.03;3.47;;;7.60;99.90;;;;;;6195138;23;20355;-86
2023/03/26 04:12:41;;;;;;;6.40;3.40;;;7.60;99.90;;;;;;6220107;23;20346;-86
2023/03/26 04:15:09;;;;;;;8.15;3.17;;;7.50;99.90;;;;;;6196584;23;20827;-85
2023/03/26 04:17:41;;;;;;;7.40;3.17;;;7.60;99.90;;;;;;6195962;23;20893;-85
2023/03/26 04:20:14;;;;;;;7.75;3.25;;;7.60;99.90;;;;;;6195845;23;20784;-85
2023/03/26 04:22:41;;;;;;;6.65;3.22;;;7.50;99.90;;;;;;6209099;23;20371;-84
2023/03/26 04:25:10;;;;;;;5.85;2.75;;;7.50;99.90;;;;;;6212280;23;20362;-85
2023/03/26 04:27:48;;;;;;;;;;;;;;;;;;;;;
2023/03/26 04:30:19;;;;;;;4.73;2.67;;;7.50;99.90;;;;;;6221995;23;20370;-85
2023/03/26 04:32:45;;;;;;;5.10;2.45;;;7.40;99.90;;;;;;6192351;23;20416;-85
2023/03/26 04:35:13;;;;;;;6.32;2.50;;;7.50;99.90;;;;;;6217995;23;20350;-86
2023/03/26 04:37:43;;;;;;;5.43;2.88;;;7.50;99.90;;;;;;6216586;23;20353;-86
2023/03/26 04:40:18;;;;;;;5.63;2.38;;;7.50;99.90;;;;;;6216031;23;20345;-84
2023/03/26 04:42:45;;;;;;;4.95;2.70;;;7.40;99.90;;;;;;6191275;23;20401;-86
2023/03/26 04:45:16;;;;;;;4.97;2.55;;;7.20;99.90;;;;;;6192454;23;20377;-85
2023/03/26 04:47:47;;;;;;;6.18;2.75;;;7.20;99.90;;;;;;6191734;23;20376;-85
2023/03/26 04:50:13;;;;;;;5.47;2.67;;;7.10;99.90;;;;;;6191862;23;20358;-85
2023/03/26 04:52:44;;;;;;;5.00;3.03;;;7.30;99.90;;;;;;6220971;23;20366;-84
2023/03/26 04:55:26;;;;;;;5.07;2.90;;;7.30;99.90;;;;;;6196854;23;20354;-84
2023/03/26 04:58:02;;;;;;;6.90;3.15;;;7.30;99.90;;;;;;6196845;23;20400;-84
2023/03/26 05:00:28;;;;;;;6.47;3.17;;;7.30;99.90;;;;;;6220775;23;20346;-84
2023/03/26 05:02:56;;;;;;;5.30;3.40;;;7.40;99.90;;;;;;6196773;23;20433;-84
2023/03/26 05:05:25;;;;;;;4.60;3.30;;;7.40;99.90;;;;;;6196423;23;20342;-84
2023/03/26 05:07:51;;;;;;;6.13;3.50;;;7.50;99.90;;;;;;6193882;23;20369;-85
2023/03/26 05:10:19;;;;;;;7.63;3.70;;;7.60;99.90;;;;;;6194748;23;20359;-84
2023/03/26 05:12:53;;;;;;;7.43;3.53;;;7.50;99.90;;;;;;6220104;23;20437;-85
2023/03/26 05:15:22;;;;;;;5.38;3.47;;;7.40;99.90;;;;;;6225389;23;20345;-83
2023/03/26 05:17:51;;;;;;;7.80;3.20;;;7.50;99.90;;;;;;6196527;23;20373;-84
2023/03/26 05:20:29;;;;;;;7.65;3.97;;;7.50;99.90;;;;;;6220514;23;20352;-84
2023/03/26 05:22:55;;;;;;;5.63;3.67;;;7.50;99.90;;;;;;6194095;23;20473;-86
2023/03/26 05:25:25;;;;;;;7.25;3.50;;;7.50;99.90;;;;;;6192456;23;20404;-84
2023/03/26 05:27:51;;;;;;;6.57;3.42;;;7.50;99.90;;;;;;6221110;23;20396;-86
2023/03/26 05:30:43;;;;;;;7.82;3.50;;;7.50;99.90;;;;;;6195810;23;20405;-84
2023/03/26 05:33:12;;;;;;;6.32;3.38;;;7.60;99.90;;;;;;6194787;23;20381;-86
2023/03/26 05:35:40;;;;;;;6.35;3.10;;;7.50;99.90;;;;;;6223080;23;20346;-83
2023/03/26 05:38:09;;;;;;;7.47;2.90;;;7.60;99.90;;;;;;6195779;23;20382;-84
2023/03/26 05:40:35;;;;;;;5.75;2.65;;;7.50;99.90;;;;;;6191751;23;20357;-86
2023/03/26 05:43:14;;;;;;;;;;;;;;;;;;;;;
2023/03/26 05:45:40;;;;;;;5.95;2.67;;;7.50;99.90;;;;;;6222389;23;20390;-84
2023/03/26 05:48:06;;;;;;;5.93;2.60;;;7.60;99.90;;;;;;6206366;23;20358;-84
2023/03/26 05:50:34;;;;;;;7.77;2.43;;;7.60;99.90;;;;;;6204850;23;20797;-85
2023/03/26 05:53:10;;;;;;;4.25;2.60;;;7.60;99.90;;;;;;6203119;23;20449;-86
2023/03/26 05:55:36;;;;;;;4.75;2.10;;;7.70;99.90;;;;;;6197329;23;20416;-85
2023/03/26 05:58:16;;;;;;;4.43;2.28;;;7.70;99.90;;;;;;6195427;23;20365;-86
2023/03/26 06:00:47;;;;;;;4.05;2.00;;;7.70;99.90;;;;;;6199633;23;20421;-85
2023/03/26 06:03:22;;;;;;;5.53;2.45;;;7.70;99.90;;;;;;6199950;23;20475;-85
2023/03/26 06:05:55;;;;;;;5.63;2.60;;;7.60;99.90;;;;;;6226428;23;20346;-85
2023/03/26 06:08:24;;;;;;;4.93;1.93;;;7.50;99.90;;;;;;6196546;23;20517;-86
2023/03/26 06:11:09;;;;;;;3.45;1.92;;;7.50;99.90;;;;;;6194409;23;20350;-86
2023/03/26 06:13:35;;;;;;;5.82;2.00;;;7.50;99.90;;;;;;6197879;23;20346;-86
2023/03/26 06:16:03;;;;;;;6.22;1.98;;;7.40;99.90;;;;;;6196880;23;20804;-86
2023/03/26 06:18:43;;;;;;;4.28;1.92;;;7.50;99.90;;;;;;6196947;23;20882;-85
2023/03/26 06:21:12;;;;;;;5.25;2.28;;;7.60;99.90;;;;;;6198451;23;20666;-85
2023/03/26 06:23:38;;;;;;;6.03;2.30;;;7.70;99.90;;;;;;6198649;23;20350;-83
2023/03/26 06:26:07;;;;;;;4.32;2.25;;;8.00;99.90;;;;;;6223721;23;20357;-85
2023/03/26 06:28:34;;;;;;;6.00;2.60;;;8.20;99.90;;;;;;6190482;23;20889;-86
2023/03/26 06:31:00;;;;;;;4.47;2.20;;;8.40;99.90;;;;;;6192868;23;20396;-87
2023/03/26 06:33:26;;;;;;;5.97;2.58;;;8.40;99.90;;;;;;6220036;23;20353;-87
2023/03/26 06:35:52;;;;;;;3.80;2.30;;;8.50;99.90;;;;;;6218291;23;20650;-85
2023/03/26 06:38:18;;;;;;;5.78;2.33;;;8.40;99.90;;;;;;6191362;23;20354;-85
2023/03/26 06:40:43;;;;;;;6.77;1.90;;;8.30;99.90;;;;;;6219371;23;20541;-85
2023/03/26 06:43:09;;;;;;;4.60;2.50;;;8.50;99.90;;;;;;6195454;23;20409;-84
2023/03/26 06:45:35;;;;;;;4.40;2.10;;;8.80;99.90;;;;;;6218060;23;20373;-86
2023/03/26 06:48:01;;;;;;;4.80;1.85;;;8.90;99.90;;;;;;6193980;23;20342;-86
2023/03/26 06:50:31;;;;;;;4.18;1.90;;;9.10;99.90;;;;;;6195718;23;20357;-85
2023/03/26 06:52:57;;;;;;;5.03;1.90;;;9.50;99.90;;;;;;6171976;23;20350;-85
2023/03/26 06:55:23;;;;;;;5.38;1.98;;;9.60;99.90;;;;;;6195527;23;20361;-85
2023/03/26 06:57:53;;;;;;;4.25;2.00;;;9.60;99.90;;;;;;6218399;23;20334;-83
2023/03/26 07:00:22;;;;;;;4.43;1.85;;;9.40;99.90;;;;;;6220340;23;20360;-85
2023/03/26 07:02:51;;;;;;;5.40;2.00;;;9.30;99.90;;;;;;6218220;23;20826;-85
2023/03/26 07:05:20;;;;;;;7.32;2.15;;;9.30;99.90;;;;;;6218240;23;20346;-83
2023/03/26 07:07:46;;;;;;;6.55;2.40;;;9.20;99.90;;;;;;6195640;23;20338;-84
2023/03/26 07:10:13;;;;;;;7.72;2.22;;;9.10;99.90;;;;;;6236367;22;20429;-84
2023/03/26 07:12:40;;;;;;;5.70;2.30;;;9.10;99.90;;;;;;6240286;22;20354;-83
2023/03/26 07:15:06;;;;;;;7.05;2.47;;;8.80;99.90;;;;;;6205480;23;20395;-83
2023/03/26 07:17:32;;;;;;;6.20;2.65;;;8.70;99.90;;;;;;6224789;23;20353;-83
2023/03/26 07:20:00;;;;;;;3.85;1.92;;;8.80;99.90;;;;;;6196687;23;20362;-85
2023/03/26 07:22:26;;;;;;;5.90;2.28;;;8.80;99.90;;;;;;6196159;23;20369;-85
2023/03/26 07:24:52;;;;;;;4.95;2.30;;;8.90;99.90;;;;;;6196765;23;20349;-82
2023/03/26 07:27:35;;;;;;;5.32;2.00;;;8.90;99.90;;;;;;6220811;23;20342;-84
2023/03/26 07:30:22;;;;;;;5.22;2.10;;;8.90;99.90;;;;;;6192769;23;20368;-84
2023/03/26 07:32:56;;;;;;;6.35;2.28;;;9.10;99.90;;;;;;6192442;23;20357;-84
2023/03/26 07:35:35;;;;;;;6.38;2.10;;;9.00;99.90;;;;;;6191786;23;20406;-84
2023/03/26 07:38:26;;;;;;;5.75;2.25;;;8.80;99.90;;;;;;6186131;23;20346;-84
2023/03/26 07:41:21;;;;;;;5.82;2.00;;;9.00;99.90;;;;;;6168501;23;20377;-84
2023/03/26 07:44:26;;;;;;;6.95;2.35;;;9.00;99.90;;;;;;6223067;23;20338;-85
2023/03/26 07:46:53;;;;;;;8.52;5.13;;;8.90;99.90;;;;;;6190015;23;20461;-84
2023/03/26 07:49:19;;;;;;;6.90;2.57;;;9.10;99.90;;;;;;6192358;23;20388;-84
2023/03/26 07:51:49;;;;;;;5.03;2.22;;;9.00;99.90;;;;;;6216316;23;20389;-86
2023/03/26 07:54:15;;;;;;;7.85;3.35;;;9.10;99.90;;;;;;6194695;23;20342;-85
2023/03/26 07:57:03;;;;;;;6.65;2.22;;;9.30;99.90;;;;;;6190246;23;20404;-85
2023/03/26 07:59:47;;;;;;;6.50;2.65;;;9.20;99.90;;;;;;6217555;23;20387;-86
2023/03/26 08:02:43;;;;;;;8.43;2.30;;;9.10;99.90;;;;;;6191588;23;20695;-86
2023/03/26 08:05:17;;;;;;;6.93;3.00;;;9.10;99.90;;;;;;6188731;23;20349;-83
2023/03/26 08:08:01;;;;;;;9.32;3.35;;;9.20;99.90;;;;;;6214788;23;20820;-85
2023/03/26 08:11:00;;;;;;;8.83;3.00;;;8.90;99.90;;;;;;6215442;23;20702;-84
2023/03/26 08:13:57;;;;;;;7.00;2.60;;;8.80;99.90;;;;;;6215740;23;20875;-84
2023/03/26 08:16:27;;;;;;;5.83;3.10;;;8.70;99.90;;;;;;6222528;23;20440;-83
2023/03/26 08:19:15;;;;;;;7.38;3.17;;;8.40;99.90;;;;;;6192955;23;20669;-85
2023/03/26 08:22:00;;;;;;;7.43;2.90;;;8.50;99.90;;;;;;6216747;23;20914;-86
2023/03/26 08:24:39;;;;;;;8.88;3.22;;;8.70;99.90;;;;;;6215223;23;20354;-84
2023/03/26 08:27:50;;;;;;;6.75;2.83;;;8.50;99.90;;;;;;6215792;23;20712;-86
2023/03/26 08:30:27;;;;;;;6.68;2.53;;;8.70;99.90;;;;;;6067189;23;20856;-85
2023/03/26 08:32:59;;;;;;;5.63;2.80;;;9.00;99.90;;;;;;6042738;23;20422;-85
2023/03/26 08:35:26;;;;;;;9.85;4.45;;;8.90;99.90;;;;;;6162264;23;20346;-85
2023/03/26 08:37:53;;;;;;;9.00;2.78;;;9.00;99.90;;;;;;6215044;23;20342;-83
2023/03/26 08:40:58;;;;;;;7.95;2.33;;;9.00;99.90;;;;;;6165503;23;20891;-83
2023/03/26 08:43:52;;;;;;;4.20;2.00;;;9.00;99.90;;;;;;6215567;23;20393;-84
2023/03/26 08:46:55;;;;;;;4.45;2.05;;;8.60;99.90;;;;;;6191161;23;20816;-84
2023/03/26 08:49:55;;;;;;;4.53;2.60;;;8.40;99.90;;;;;;6188125;23;20354;-84
2023/03/26 08:53:06;;;;;;;6.63;2.70;;;8.20;99.90;;;;;;6216798;23;20420;-86
2023/03/26 08:55:51;;;;;;;6.60;2.90;;;7.90;99.90;;;;;;6124730;23;20389;-85
2023/03/26 08:58:41;;;;;;;9.00;3.25;;;7.70;99.90;;;;;;6218404;23;20346;-84
2023/03/26 09:01:48;;;;;;;6.65;2.67;;;7.50;99.90;;;;;;6189123;23;20477;-84
2023/03/26 09:04:27;;;;;;;6.70;3.35;;;7.60;99.90;;;;;;6215466;23;20358;-83
2023/03/26 09:06:52;;;;;;;7.53;2.60;;;7.50;99.90;;;;;;6187761;23;20350;-84
2023/03/26 09:09:45;;;;;;;7.18;2.75;;;7.50;99.90;;;;;;6216048;23;20353;-85
2023/03/26 09:12:35;;;;;;;5.70;2.72;;;7.50;99.90;;;;;;6214214;23;20405;-83
2023/03/26 09:15:26;;;;;;;6.63;2.85;;;7.40;99.90;;;;;;6213455;23;20346;-84
2023/03/26 09:18:10;;;;;;;7.97;3.08;;;7.30;99.90;;;;;;6186943;23;20395;-84
2023/03/26 09:20:47;;;;;;;7.53;3.10;;;7.40;99.90;;;;;;6214193;23;20436;-84
2023/03/26 09:23:38;;;;;;;8.38;2.80;;;7.40;99.90;;;;;;6215730;23;20483;-83
2023/03/26 09:26:18;;;;;;;8.45;3.58;;;7.40;99.90;;;;;;6192106;23;20342;-83
2023/03/26 09:29:02;;;;;;;9.07;3.58;;;7.30;99.90;;;;;;6218962;23;20805;-84
2023/03/26 09:31:56;;;;;;;9.07;2.97;;;7.30;99.90;;;;;;6221784;23;20346;-84
2023/03/26 09:34:43;;;;;;;8.05;2.97;;;7.50;99.90;;;;;;6219781;23;20341;-86
2023/03/26 09:37:27;;;;;;;7.90;3.15;;;7.50;99.90;;;;;;6217858;23;20331;-85
2023/03/26 09:40:23;;;;;;;7.30;2.95;;;7.60;99.90;;;;;;6217969;23;20350;-86
2023/03/26 09:42:57;;;;;;;10.52;3.60;;;7.70;99.90;;;;;;6217457;23;20448;-84
2023/03/26 09:45:44;;;;;;;8.13;3.60;;;7.80;99.90;;;;;;6217034;23;20369;-84
2023/03/26 09:48:31;;;;;;;9.13;3.88;;;8.00;99.90;;;;;;6220848;23;20341;-84
2023/03/26 09:51:28;;;;;;;7.15;3.75;;;8.20;99.90;;;;;;6191313;23;20346;-83
2023/03/26 09:54:25;;;;;;;9.40;4.00;;;8.50;99.90;;;;;;6189696;23;20361;-86
2023/03/26 09:57:12;;;;;;;8.43;3.35;;;8.60;99.90;;;;;;6198098;23;20361;-84
2023/03/26 09:59:51;;;;;;;9.48;3.03;;;8.50;99.90;;;;;;6237381;23;20334;-84
2023/03/26 10:02:35;;;;;;;9.70;3.28;;;8.40;99.90;;;;;;6228349;23;20389;-86
2023/03/26 10:05:26;;;;;;;8.82;3.60;;;8.20;99.90;;;;;;6189230;23;20354;-85
2023/03/26 10:08:14;;;;;;;10.35;4.28;;;7.90;99.90;;;;;;6188505;23;20404;-85
2023/03/26 10:10:58;;;;;;;13.57;7.07;;;7.80;99.90;;;;;;6189165;23;20446;-88
2023/03/26 10:13:42;;;;;;;11.10;5.72;;;7.90;99.90;;;;;;6188495;23;20393;-85
2023/03/26 10:16:25;;;;;;;10.25;3.72;;;8.10;99.90;;;;;;6217553;23;20496;-87
2023/03/26 10:18:57;;;;;;;6.68;3.25;;;8.10;99.90;;;;;;6215109;23;20346;-85
2023/03/26 10:21:49;;;;;;;8.93;3.50;;;8.30;99.90;;;;;;6194035;23;20398;-84
2023/03/26 10:24:31;;;;;;;9.43;3.42;;;8.60;99.90;;;;;;6189737;23;21014;-85
2023/03/26 10:27:00;;;;;;;7.93;3.28;;;8.70;99.90;;;;;;6190739;23;20342;-86
2023/03/26 10:29:25;;;;;;;6.18;2.78;;;9.00;99.90;;;;;;6216825;23;20346;-85
2023/03/26 10:32:32;;;;;;;10.73;3.13;;;9.40;99.90;;;;;;6214282;23;20342;-85
2023/03/26 10:35:07;;;;;;;9.05;2.72;;;9.60;99.90;;;;;;6211597;23;20366;-83
2023/03/26 10:38:09;;;;;;;9.05;3.40;;;9.80;99.90;;;;;;6214019;23;20831;-88
2023/03/26 10:40:57;;;;;;;8.70;4.30;;;10.20;99.90;;;;;;6181069;23;20432;-84
2023/03/26 10:43:42;;;;;;;29.77;4.70;;;11.00;99.90;;;;;;6212830;23;20346;-85
2023/03/26 10:46:17;;;;;;;9.48;2.58;;;11.50;99.90;;;;;;6213486;23;20366;-84
2023/03/26 10:49:02;;;;;;;7.38;2.55;;;11.60;99.90;;;;;;6215083;23;20801;-84
2023/03/26 10:51:57;;;;;;;9.70;2.40;;;11.60;99.90;;;;;;6213879;23;20448;-84
2023/03/26 10:54:39;;;;;;;4.97;2.13;;;12.50;99.90;;;;;;6214825;23;20375;-85
2023/03/26 10:57:25;;;;;;;6.45;2.33;;;;;;;;;;6214795;23;20349;-84
2023/03/26 10:59:59;;;;;;;6.95;2.40;;;14.00;99.90;;;;;;6212876;23;20349;-84
2023/03/26 11:02:39;;;;;;;7.00;2.08;;;14.00;99.90;;;;;;6213117;23;20380;-84
2023/03/26 11:05:32;;;;;;;4.90;2.13;;;13.60;99.90;;;;;;6216298;23;20349;-85
2023/03/26 11:08:25;;;;;;;7.60;2.70;;;13.60;99.90;;;;;;6187217;23;20433;-85
2023/03/26 11:10:55;;;;;;;7.50;2.38;;;13.20;99.90;;;;;;6187263;23;20361;-84
2023/03/26 11:13:34;;;;;;;9.13;2.97;;;12.80;99.90;;;;;;6214323;23;20362;-85
2023/03/26 11:16:00;;;;;;;6.95;2.90;;;12.80;99.90;;;;;;6187060;23;20350;-84
2023/03/26 11:18:41;;;;;;;8.77;2.65;;;12.70;99.90;;;;;;6185937;23;20456;-84
2023/03/26 11:21:39;;;;;;;6.68;2.67;;;12.50;99.90;;;;;;6214081;23;20429;-85
2023/03/26 11:24:26;;;;;;;8.60;2.70;;;12.50;99.90;;;;;;6124772;23;20388;-85
2023/03/26 11:26:55;;;;;;;5.57;2.38;;;12.50;99.90;;;;;;6214476;23;20354;-84
2023/03/26 11:29:29;;;;;;;7.22;2.88;;;12.50;99.90;;;;;;6216125;23;20844;-86
2023/03/26 11:32:43;;;;;;;6.30;2.53;;;13.00;99.90;;;;;;6213784;23;20349;-86
2023/03/26 11:35:31;;;;;;;7.75;2.80;;;13.00;99.90;;;;;;6146127;23;20353;-86
2023/03/26 11:38:05;;;;;;;58.78;27.02;;;13.00;99.90;;;;;;6213500;23;20357;-86
2023/03/26 11:40:37;;;;;;;7.22;3.10;;;13.40;99.90;;;;;;6207430;23;21211;-87
2023/03/26 11:43:06;;;;;;;8.57;2.35;;;13.40;99.90;;;;;;6213592;23;20805;-86
2023/03/26 11:45:36;;;;;;;5.82;1.95;;;13.20;99.90;;;;;;6212946;23;20361;-85
2023/03/26 11:48:11;;;;;;;5.13;2.35;;;13.00;99.90;;;;;;6214385;23;20346;-85
2023/03/26 11:50:43;;;;;;;5.32;2.63;;;13.00;99.90;;;;;;6186434;23;20406;-86
2023/03/26 11:53:16;;;;;;;5.20;2.60;;;12.80;99.90;;;;;;6214769;23;20342;-85
2023/03/26 11:56:02;;;;;;;5.30;2.88;;;12.40;99.90;;;;;;6186775;23;20386;-85
2023/03/26 11:58:34;;;;;;;5.72;2.50;;;12.60;99.90;;;;;;6216492;23;20432;-86
2023/03/26 12:01:04;;;;;;;5.82;2.58;;;12.60;99.90;;;;;;6215050;23;20681;-86
2023/03/26 12:03:30;;;;;;;4.87;2.20;;;12.60;99.90;;;;;;6189151;23;20369;-86
2023/03/26 12:06:01;;;;;;;5.45;2.55;;;12.50;99.90;;;;;;6214737;23;20342;-85
2023/03/26 12:08:37;;;;;;;5.60;2.30;;;12.40;99.90;;;;;;6188115;23;20413;-83
2023/03/26 12:11:11;;;;;;;5.40;2.67;;;12.60;99.90;;;;;;6187353;23;20354;-84
2023/03/26 12:13:50;;;;;;;7.53;2.50;;;12.60;99.90;;;;;;6214978;23;20365;-84
2023/03/26 12:16:18;;;;;;;5.90;2.30;;;12.70;99.90;;;;;;6187544;23;20393;-84
2023/03/26 12:18:46;;;;;;;5.53;2.45;;;12.60;99.90;;;;;;6187787;23;20420;-83
2023/03/26 12:21:18;;;;;;;8.02;2.55;;;12.70;99.90;;;;;;6215942;23;20393;-84
2023/03/26 12:23:58;;;;;;;5.97;2.40;;;12.30;99.90;;;;;;6215140;23;20369;-83
2023/03/26 12:26:40;;;;;;;6.90;2.67;;;12.30;99.90;;;;;;6214697;23;20346;-85
2023/03/26 12:29:27;;;;;;;5.47;2.38;;;12.60;99.90;;;;;;6217449;23;20352;-84
2023/03/26 12:32:11;;;;;;;6.78;2.30;;;12.90;99.90;;;;;;6189441;23;20370;-84
2023/03/26 12:34:38;;;;;;;5.18;2.22;;;12.90;99.90;;;;;;6190692;23;20385;-85
2023/03/26 12:37:06;;;;;;;6.75;2.83;;;12.90;99.90;;;;;;6189283;23;20385;-84
2023/03/26 12:39:32;;;;;;;6.20;2.85;;;12.70;99.90;;;;;;6187802;23;20732;-83
2023/03/26 12:42:01;;;;;;;4.23;2.30;;;12.70;99.90;;;;;;6190276;23;20374;-85
2023/03/26 12:44:33;;;;;;;5.70;2.53;;;12.70;99.90;;;;;;6218926;23;20342;-82
2023/03/26 12:47:14;;;;;;;10.32;2.95;;;12.90;99.90;;;;;;6206410;23;20412;-80
2023/03/26 12:49:41;;;;;;;5.43;2.22;;;12.80;99.90;;;;;;6226975;23;20334;-82
2023/03/26 12:52:31;;;;;;;4.72;2.10;;;12.80;99.90;;;;;;6224719;23;20373;-82
2023/03/26 12:55:09;;;;;;;12.02;2.45;;;12.50;99.90;;;;;;6216378;23;20334;-81
2023/03/26 12:57:40;;;;;;;6.63;2.13;;;12.30;99.90;;;;;;6214745;23;20567;-84
2023/03/26 13:00:20;;;;;;;4.80;1.80;;;12.00;99.90;;;;;;6214802;23;20354;-84
2023/03/26 13:03:10;;;;;;;4.47;1.90;;;12.10;99.90;;;;;;6227432;23;20443;-84
2023/03/26 13:06:00;;;;;;;4.73;1.90;;;12.10;99.90;;;;;;6219892;23;20420;-83
2023/03/26 13:08:57;;;;;;;4.38;2.10;;;12.00;99.90;;;;;;6220570;23;20404;-84
2023/03/26 13:11:54;;;;;;;3.65;1.90;;;11.90;99.90;;;;;;6214397;23;20361;-83
2023/03/26 13:14:55;;;;;;;4.05;1.92;;;11.90;99.90;;;;;;6212712;23;20349;-84
2023/03/26 13:17:29;;;;;;;4.85;2.30;;;12.00;99.90;;;;;;6214605;23;20342;-84
2023/03/26 13:20:14;;;;;;;3.75;1.65;;;12.10;99.90;;;;;;6188067;23;20354;-84
2023/03/26 13:23:06;;;;;;;3.92;1.90;;;11.90;99.90;;;;;;6186481;23;20373;-84
2023/03/26 13:25:58;;;;;;;4.10;1.70;;;11.70;99.90;;;;;;6187053;23;20723;-84
2023/03/26 13:28:46;;;;;;;3.75;1.70;;;12.00;99.90;;;;;;6213942;23;20338;-85
2023/03/26 13:31:37;;;;;;;4.72;1.83;;;11.70;99.90;;;;;;6214287;23;20333;-84
2023/03/26 13:34:29;;;;;;;5.10;2.10;;;11.70;99.90;;;;;;6188301;23;20463;-85
2023/03/26 13:37:11;;;;;;;4.45;2.00;;;11.80;99.90;;;;;;6186447;23;20354;-85
2023/03/26 13:39:48;;;;;;;5.90;2.10;;;11.70;99.90;;;;;;6184639;23;20400;-83
2023/03/26 13:42:57;;;;;;;5.32;2.35;;;11.80;99.90;;;;;;6212090;23;20376;-83